sensor_id;sensor_type;location;lat;lon;timestamp;temperature;humidity
18047;DHT22;9148;51.454;13.862;2023-02-28T00:00:47;1.40;99.90
18047;DHT22;9148;51.454;13.862;2023-02-28T00:03:12;0.40;99.90
18047;DHT22;9148;51.454;13.862;2023-02-28T00:05:38;0.50;99.90
18047;DHT22;9148;51.454;13.862;2023-02-28T00:08:04;0.50;99.90
18047;DHT22;9148;51.454;13.862;2023-02-28T00:10:31;1.10;99.90
18047;DHT22;9148;51.454;13.862;2023-02-28T00:13:05;0.40;99.90
18047;DHT22;9148;51.454;13.862;2023-02-28T00:15:32;0.40;99.90
18047;DHT22;9148;51.454;13.862;2023-02-28T00:17:58;0.30;99.90
18047;DHT22;9148;51.454;13.862;2023-02-28T00:20:24;1.10;99.90
18047;DHT22;9148;51.454;13.862;2023-02-28T00:22:52;1.00;99.90
18047;DHT22;9148;51.454;13.862;2023-02-28T00:25:20;0.00;99.90
18047;DHT22;9148;51.454;13.862;2023-02-28T00:27:48;-0.10;99.90
18047;DHT22;9148;51.454;13.862;2023-02-28T00:30:17;-0.20;99.90
18047;DHT22;9148;51.454;13.862;2023-02-28T00:32:43;-0.30;99.90
18047;DHT22;9148;51.454;13.862;2023-02-28T00:35:10;-0.30;99.90
18047;DHT22;9148;51.454;13.862;2023-02-28T00:37:36;-0.40;99.90
18047;DHT22;9148;51.454;13.862;2023-02-28T00:40:03;-0.40;99.90
18047;DHT22;9148;51.454;13.862;2023-02-28T00:42:33;-0.40;99.90
18047;DHT22;9148;51.454;13.862;2023-02-28T00:44:59;-0.50;99.90
18047;DHT22;9148;51.454;13.862;2023-02-28T00:47:25;0.50;99.90
18047;DHT22;9148;51.454;13.862;2023-02-28T00:49:51;-0.50;99.90
18047;DHT22;9148;51.454;13.862;2023-02-28T00:52:16;-0.50;99.90
18047;DHT22;9148;51.454;13.862;2023-02-28T00:54:42;-0.60;99.90
18047;DHT22;9148;51.454;13.862;2023-02-28T00:57:07;-0.50;99.90
18047;DHT22;9148;51.454;13.862;2023-02-28T00:59:34;-0.60;99.90
18047;DHT22;9148;51.454;13.862;2023-02-28T01:02:00;-0.70;99.90
18047;DHT22;9148;51.454;13.862;2023-02-28T01:04:25;-0.60;99.90
18047;DHT22;9148;51.454;13.862;2023-02-28T01:06:51;-0.60;99.90
18047;DHT22;9148;51.454;13.862;2023-02-28T01:09:17;-0.60;99.90
18047;DHT22;9148;51.454;13.862;2023-02-28T01:11:43;-0.70;99.90
18047;DHT22;9148;51.454;13.862;2023-02-28T01:14:15;-0.50;99.90
18047;DHT22;9148;51.454;13.862;2023-02-28T01:16:41;-0.50;99.90
18047;DHT22;9148;51.454;13.862;2023-02-28T01:19:07;-0.50;99.90
18047;DHT22;9148;51.454;13.862;2023-02-28T01:21:33;-0.40;99.90
18047;DHT22;9148;51.454;13.862;2023-02-28T01:24:01;-1.20;99.90
18047;DHT22;9148;51.454;13.862;2023-02-28T01:26:27;-0.30;99.90
18047;DHT22;9148;51.454;13.862;2023-02-28T01:28:53;-0.40;99.90
18047;DHT22;9148;51.454;13.862;2023-02-28T01:31:19;-0.50;99.90
18047;DHT22;9148;51.454;13.862;2023-02-28T01:33:46;-0.50;99.90
18047;DHT22;9148;51.454;13.862;2023-02-28T01:36:14;-0.40;99.90
18047;DHT22;9148;51.454;13.862;2023-02-28T01:38:48;-0.50;99.90
18047;DHT22;9148;51.454;13.862;2023-02-28T01:41:26;-0.40;99.90
18047;DHT22;9148;51.454;13.862;2023-02-28T01:47:09;-0.50;99.90
18047;DHT22;9148;51.454;13.862;2023-02-28T01:49:35;-0.70;99.90
18047;DHT22;9148;51.454;13.862;2023-02-28T01:52:01;-0.50;99.90
18047;DHT22;9148;51.454;13.862;2023-02-28T01:54:30;-0.60;99.90
18047;DHT22;9148;51.454;13.862;2023-02-28T01:57:13;-0.60;99.90
18047;DHT22;9148;51.454;13.862;2023-02-28T01:59:48;-0.50;99.90
18047;DHT22;9148;51.454;13.862;2023-02-28T02:02:20;0.50;99.90
18047;DHT22;9148;51.454;13.862;2023-02-28T02:05:04;0.30;99.90
18047;DHT22;9148;51.454;13.862;2023-02-28T02:07:37;-0.50;99.90
18047;DHT22;9148;51.454;13.862;2023-02-28T02:10:19;-0.60;99.90
18047;DHT22;9148;51.454;13.862;2023-02-28T02:13:05;-0.60;99.90
18047;DHT22;9148;51.454;13.862;2023-02-28T02:15:44;-0.80;99.90
18047;DHT22;9148;51.454;13.862;2023-02-28T02:18:43;-0.80;99.90
18047;DHT22;9148;51.454;13.862;2023-02-28T02:21:42;-0.30;99.90
18047;DHT22;9148;51.454;13.862;2023-02-28T02:24:42;-0.90;99.90
18047;DHT22;9148;51.454;13.862;2023-02-28T02:28:00;-1.00;99.90
18047;DHT22;9148;51.454;13.862;2023-02-28T02:33:35;-1.40;99.90
18047;DHT22;9148;51.454;13.862;2023-02-28T02:36:35;-1.40;99.90
18047;DHT22;9148;51.454;13.862;2023-02-28T02:41:54;-1.60;99.90
18047;DHT22;9148;51.454;13.862;2023-02-28T02:44:31;-1.50;99.90
18047;DHT22;9148;51.454;13.862;2023-02-28T02:47:18;-1.70;99.90
18047;DHT22;9148;51.454;13.862;2023-02-28T02:49:55;-1.90;99.90
18047;DHT22;9148;51.454;13.862;2023-02-28T02:52:30;-1.80;99.90
18047;DHT22;9148;51.454;13.862;2023-02-28T02:55:00;-1.40;99.90
18047;DHT22;9148;51.454;13.862;2023-02-28T02:57:33;-2.10;99.90
18047;DHT22;9148;51.454;13.862;2023-02-28T03:00:04;-2.10;99.90
18047;DHT22;9148;51.454;13.862;2023-02-28T03:02:35;-1.80;99.90
18047;DHT22;9148;51.454;13.862;2023-02-28T03:05:06;-2.20;99.90
18047;DHT22;9148;51.454;13.862;2023-02-28T03:07:34;-2.30;99.90
18047;DHT22;9148;51.454;13.862;2023-02-28T03:10:00;-2.30;99.90
18047;DHT22;9148;51.454;13.862;2023-02-28T03:12:40;-2.30;99.90
18047;DHT22;9148;51.454;13.862;2023-02-28T03:15:26;-2.40;99.90
18047;DHT22;9148;51.454;13.862;2023-02-28T03:18:08;-2.40;99.90
18047;DHT22;9148;51.454;13.862;2023-02-28T03:23:56;-2.60;99.90
18047;DHT22;9148;51.454;13.862;2023-02-28T03:26:50;-2.60;99.90
18047;DHT22;9148;51.454;13.862;2023-02-28T03:29:34;-2.60;99.90
18047;DHT22;9148;51.454;13.862;2023-02-28T03:32:46;-2.60;99.90
18047;DHT22;9148;51.454;13.862;2023-02-28T03:35:22;-2.60;99.90
18047;DHT22;9148;51.454;13.862;2023-02-28T03:37:53;-2.70;99.90
18047;DHT22;9148;51.454;13.862;2023-02-28T03:40:28;-2.70;99.90
18047;DHT22;9148;51.454;13.862;2023-02-28T03:43:01;-2.60;99.90
18047;DHT22;9148;51.454;13.862;2023-02-28T03:45:33;-2.60;99.90
18047;DHT22;9148;51.454;13.862;2023-02-28T03:48:17;-2.50;99.90
18047;DHT22;9148;51.454;13.862;2023-02-28T03:50:49;-2.40;99.90
18047;DHT22;9148;51.454;13.862;2023-02-28T03:53:34;-2.40;99.90
18047;DHT22;9148;51.454;13.862;2023-02-28T03:56:11;-2.40;99.90
18047;DHT22;9148;51.454;13.862;2023-02-28T04:01:32;-2.50;99.90
18047;DHT22;9148;51.454;13.862;2023-02-28T04:04:01;-2.40;99.90
18047;DHT22;9148;51.454;13.862;2023-02-28T04:06:31;-2.80;99.90
18047;DHT22;9148;51.454;13.862;2023-02-28T04:08:58;-2.30;99.90
18047;DHT22;9148;51.454;13.862;2023-02-28T04:11:33;-2.40;99.90
18047;DHT22;9148;51.454;13.862;2023-02-28T04:14:02;-2.30;99.90
18047;DHT22;9148;51.454;13.862;2023-02-28T04:16:30;-1.40;99.90
18047;DHT22;9148;51.454;13.862;2023-02-28T04:19:00;-2.20;99.90
18047;DHT22;9148;51.454;13.862;2023-02-28T04:21:35;-2.10;99.90
18047;DHT22;9148;51.454;13.862;2023-02-28T04:24:04;-2.10;99.90
18047;DHT22;9148;51.454;13.862;2023-02-28T04:26:35;-2.10;99.90
18047;DHT22;9148;51.454;13.862;2023-02-28T04:29:03;-2.10;99.90
18047;DHT22;9148;51.454;13.862;2023-02-28T04:31:30;-2.20;99.90
18047;DHT22;9148;51.454;13.862;2023-02-28T04:33:56;-2.20;99.90
18047;DHT22;9148;51.454;13.862;2023-02-28T04:36:22;-2.30;99.90
18047;DHT22;9148;51.454;13.862;2023-02-28T04:38:49;-2.30;99.90
18047;DHT22;9148;51.454;13.862;2023-02-28T04:41:15;-2.30;99.90
18047;DHT22;9148;51.454;13.862;2023-02-28T04:43:42;-2.40;99.90
18047;DHT22;9148;51.454;13.862;2023-02-28T04:46:08;-2.50;99.90
18047;DHT22;9148;51.454;13.862;2023-02-28T04:48:36;-2.50;99.90
18047;DHT22;9148;51.454;13.862;2023-02-28T04:51:04;-2.20;99.90
18047;DHT22;9148;51.454;13.862;2023-02-28T04:53:35;-2.60;99.90
18047;DHT22;9148;51.454;13.862;2023-02-28T04:56:12;-2.80;99.90
18047;DHT22;9148;51.454;13.862;2023-02-28T04:58:39;-2.70;99.90
18047;DHT22;9148;51.454;13.862;2023-02-28T05:01:16;-2.90;99.90
18047;DHT22;9148;51.454;13.862;2023-02-28T05:03:57;-2.90;99.90
18047;DHT22;9148;51.454;13.862;2023-02-28T05:06:25;-2.90;99.90
18047;DHT22;9148;51.454;13.862;2023-02-28T05:08:52;-3.00;99.90
18047;DHT22;9148;51.454;13.862;2023-02-28T05:11:19;-3.10;99.90
18047;DHT22;9148;51.454;13.862;2023-02-28T05:13:50;-3.20;99.90
18047;DHT22;9148;51.454;13.862;2023-02-28T05:16:18;-3.10;99.90
18047;DHT22;9148;51.454;13.862;2023-02-28T05:18:44;-3.10;99.90
18047;DHT22;9148;51.454;13.862;2023-02-28T05:21:31;-2.40;99.90
18047;DHT22;9148;51.454;13.862;2023-02-28T05:24:00;-3.20;99.90
18047;DHT22;9148;51.454;13.862;2023-02-28T05:26:28;-3.20;99.90
18047;DHT22;9148;51.454;13.862;2023-02-28T05:28:55;-3.20;99.90
18047;DHT22;9148;51.454;13.862;2023-02-28T05:31:21;-3.20;99.90
18047;DHT22;9148;51.454;13.862;2023-02-28T05:33:47;-3.20;99.90
18047;DHT22;9148;51.454;13.862;2023-02-28T05:36:13;-3.10;99.90
18047;DHT22;9148;51.454;13.862;2023-02-28T05:38:39;-2.90;99.90
18047;DHT22;9148;51.454;13.862;2023-02-28T05:41:06;-3.30;99.90
18047;DHT22;9148;51.454;13.862;2023-02-28T05:43:33;-3.20;99.90
18047;DHT22;9148;51.454;13.862;2023-02-28T05:46:02;-3.00;99.90
18047;DHT22;9148;51.454;13.862;2023-02-28T05:48:29;-3.30;99.90
18047;DHT22;9148;51.454;13.862;2023-02-28T05:50:54;-3.20;99.90
18047;DHT22;9148;51.454;13.862;2023-02-28T05:53:20;-3.30;99.90
18047;DHT22;9148;51.454;13.862;2023-02-28T05:55:46;-3.30;99.90
18047;DHT22;9148;51.454;13.862;2023-02-28T05:58:12;-3.20;99.90
18047;DHT22;9148;51.454;13.862;2023-02-28T06:00:37;-3.30;99.90
18047;DHT22;9148;51.454;13.862;2023-02-28T06:03:03;-2.50;99.90
18047;DHT22;9148;51.454;13.862;2023-02-28T06:05:29;-3.20;99.90
18047;DHT22;9148;51.454;13.862;2023-02-28T06:07:54;-3.30;99.90
18047;DHT22;9148;51.454;13.862;2023-02-28T06:10:20;-3.40;99.90
18047;DHT22;9148;51.454;13.862;2023-02-28T06:12:46;-2.30;99.90
18047;DHT22;9148;51.454;13.862;2023-02-28T06:15:13;-3.40;99.90
18047;DHT22;9148;51.454;13.862;2023-02-28T06:17:43;-3.50;99.90
18047;DHT22;9148;51.454;13.862;2023-02-28T06:20:11;-3.40;99.90
18047;DHT22;9148;51.454;13.862;2023-02-28T06:22:38;-3.40;99.90
18047;DHT22;9148;51.454;13.862;2023-02-28T06:25:05;-3.30;99.90
18047;DHT22;9148;51.454;13.862;2023-02-28T06:27:33;-3.30;99.90
18047;DHT22;9148;51.454;13.862;2023-02-28T06:29:59;-3.30;99.90
18047;DHT22;9148;51.454;13.862;2023-02-28T06:32:25;-3.30;99.90
18047;DHT22;9148;51.454;13.862;2023-02-28T06:34:51;-3.20;99.90
18047;DHT22;9148;51.454;13.862;2023-02-28T06:37:17;-3.10;99.90
18047;DHT22;9148;51.454;13.862;2023-02-28T06:39:43;-3.00;99.90
18047;DHT22;9148;51.454;13.862;2023-02-28T06:42:09;-3.00;99.90
18047;DHT22;9148;51.454;13.862;2023-02-28T06:44:35;-2.90;99.90
18047;DHT22;9148;51.454;13.862;2023-02-28T06:47:05;-2.80;99.90
18047;DHT22;9148;51.454;13.862;2023-02-28T06:49:33;-2.60;99.90
18047;DHT22;9148;51.454;13.862;2023-02-28T06:51:59;-2.70;99.90
18047;DHT22;9148;51.454;13.862;2023-02-28T06:54:25;-2.50;99.90
18047;DHT22;9148;51.454;13.862;2023-02-28T06:56:51;-2.20;99.90
18047;DHT22;9148;51.454;13.862;2023-02-28T06:59:17;-1.70;99.90
18047;DHT22;9148;51.454;13.862;2023-02-28T07:01:43;-2.00;99.90
18047;DHT22;9148;51.454;13.862;2023-02-28T07:04:09;-1.80;99.90
18047;DHT22;9148;51.454;13.862;2023-02-28T07:06:34;-1.60;99.90
18047;DHT22;9148;51.454;13.862;2023-02-28T07:09:00;-1.40;99.90
18047;DHT22;9148;51.454;13.862;2023-02-28T07:11:27;-1.20;99.90
18047;DHT22;9148;51.454;13.862;2023-02-28T07:13:54;-1.00;99.90
18047;DHT22;9148;51.454;13.862;2023-02-28T07:16:21;-0.80;99.90
18047;DHT22;9148;51.454;13.862;2023-02-28T07:18:47;-0.60;99.90
18047;DHT22;9148;51.454;13.862;2023-02-28T07:21:13;-0.40;99.90
18047;DHT22;9148;51.454;13.862;2023-02-28T07:23:39;0.30;99.90
18047;DHT22;9148;51.454;13.862;2023-02-28T07:26:07;0.00;99.90
18047;DHT22;9148;51.454;13.862;2023-02-28T07:28:36;0.00;99.90
18047;DHT22;9148;51.454;13.862;2023-02-28T07:31:04;1.10;99.90
18047;DHT22;9148;51.454;13.862;2023-02-28T07:33:31;0.10;99.90
18047;DHT22;9148;51.454;13.862;2023-02-28T07:36:05;0.10;99.90
18047;DHT22;9148;51.454;13.862;2023-02-28T07:38:36;0.10;99.90
18047;DHT22;9148;51.454;13.862;2023-02-28T07:41:03;0.20;99.90
18047;DHT22;9148;51.454;13.862;2023-02-28T07:43:32;1.40;99.90
18047;DHT22;9148;51.454;13.862;2023-02-28T07:46:06;0.40;99.90
18047;DHT22;9148;51.454;13.862;2023-02-28T07:48:33;0.60;99.90
18047;DHT22;9148;51.454;13.862;2023-02-28T07:51:00;0.80;99.90
18047;DHT22;9148;51.454;13.862;2023-02-28T07:53:26;0.20;99.90
18047;DHT22;9148;51.454;13.862;2023-02-28T07:56:02;1.30;99.90
18047;DHT22;9148;51.454;13.862;2023-02-28T07:58:29;1.50;99.90
18047;DHT22;9148;51.454;13.862;2023-02-28T08:00:55;1.80;99.90
18047;DHT22;9148;51.454;13.862;2023-02-28T08:03:22;2.10;99.90
18047;DHT22;9148;51.454;13.862;2023-02-28T08:05:49;2.40;99.90
18047;DHT22;9148;51.454;13.862;2023-02-28T08:08:16;3.80;99.90
18047;DHT22;9148;51.454;13.862;2023-02-28T08:10:42;3.10;99.90
18047;DHT22;9148;51.454;13.862;2023-02-28T08:13:08;3.50;99.90
18047;DHT22;9148;51.454;13.862;2023-02-28T08:15:34;4.00;99.90
18047;DHT22;9148;51.454;13.862;2023-02-28T08:17:59;4.00;99.90
18047;DHT22;9148;51.454;13.862;2023-02-28T08:20:26;4.40;99.90
18047;DHT22;9148;51.454;13.862;2023-02-28T08:22:52;4.80;99.90
18047;DHT22;9148;51.454;13.862;2023-02-28T08:25:18;5.10;99.90
18047;DHT22;9148;51.454;13.862;2023-02-28T08:27:43;5.50;99.90
18047;DHT22;9148;51.454;13.862;2023-02-28T08:30:11;5.60;99.90
18047;DHT22;9148;51.454;13.862;2023-02-28T08:32:38;5.90;99.90
18047;DHT22;9148;51.454;13.862;2023-02-28T08:35:04;6.20;99.90
18047;DHT22;9148;51.454;13.862;2023-02-28T08:37:30;6.20;97.70
18047;DHT22;9148;51.454;13.862;2023-02-28T08:39:56;6.60;97.60
18047;DHT22;9148;51.454;13.862;2023-02-28T08:42:21;6.50;96.90
18047;DHT22;9148;51.454;13.862;2023-02-28T08:44:47;6.70;94.80
18047;DHT22;9148;51.454;13.862;2023-02-28T08:47:13;6.90;94.00
18047;DHT22;9148;51.454;13.862;2023-02-28T08:49:39;7.00;92.30
18047;DHT22;9148;51.454;13.862;2023-02-28T08:52:04;7.20;89.90
18047;DHT22;9148;51.454;13.862;2023-02-28T08:54:30;7.20;89.50
18047;DHT22;9148;51.454;13.862;2023-02-28T08:56:57;8.20;86.50
18047;DHT22;9148;51.454;13.862;2023-02-28T08:59:23;7.50;84.70
18047;DHT22;9148;51.454;13.862;2023-02-28T09:01:48;7.70;83.30
18047;DHT22;9148;51.454;13.862;2023-02-28T09:04:14;7.70;82.60
18047;DHT22;9148;51.454;13.862;2023-02-28T09:06:40;7.90;83.50
18047;DHT22;9148;51.454;13.862;2023-02-28T09:09:06;8.20;82.80
18047;DHT22;9148;51.454;13.862;2023-02-28T09:11:33;8.30;80.90
18047;DHT22;9148;51.454;13.862;2023-02-28T09:14:00;8.50;77.00
18047;DHT22;9148;51.454;13.862;2023-02-28T09:16:29;8.20;73.90
18047;DHT22;9148;51.454;13.862;2023-02-28T09:18:56;8.20;71.00
18047;DHT22;9148;51.454;13.862;2023-02-28T09:21:22;7.50;68.30
18047;DHT22;9148;51.454;13.862;2023-02-28T09:23:51;7.10;66.80
18047;DHT22;9148;51.454;13.862;2023-02-28T09:26:25;6.80;61.70
18047;DHT22;9148;51.454;13.862;2023-02-28T09:28:52;6.50;64.00
18047;DHT22;9148;51.454;13.862;2023-02-28T09:31:22;6.20;64.20
18047;DHT22;9148;51.454;13.862;2023-02-28T09:33:51;6.50;65.00
18047;DHT22;9148;51.454;13.862;2023-02-28T09:36:18;5.80;67.20
18047;DHT22;9148;51.454;13.862;2023-02-28T09:38:44;5.90;67.10
18047;DHT22;9148;51.454;13.862;2023-02-28T09:41:14;6.50;67.50
18047;DHT22;9148;51.454;13.862;2023-02-28T09:43:48;6.20;65.70
18047;DHT22;9148;51.454;13.862;2023-02-28T09:46:35;6.20;65.20
18047;DHT22;9148;51.454;13.862;2023-02-28T09:49:11;5.90;63.70
18047;DHT22;9148;51.454;13.862;2023-02-28T09:52:05;5.70;62.30
18047;DHT22;9148;51.454;13.862;2023-02-28T09:54:35;5.60;63.10
18047;DHT22;9148;51.454;13.862;2023-02-28T09:57:07;5.30;61.70
18047;DHT22;9148;51.454;13.862;2023-02-28T10:02:54;5.00;64.10
18047;DHT22;9148;51.454;13.862;2023-02-28T10:05:51;5.70;66.10
18047;DHT22;9148;51.454;13.862;2023-02-28T10:08:33;5.10;66.00
18047;DHT22;9148;51.454;13.862;2023-02-28T10:11:07;4.90;65.60
18047;DHT22;9148;51.454;13.862;2023-02-28T10:14:38;6.10;65.10
18047;DHT22;9148;51.454;13.862;2023-02-28T10:16:54;5.30;64.50
18047;DHT22;9148;51.454;13.862;2023-02-28T10:19:30;5.70;65.80
18047;DHT22;9148;51.454;13.862;2023-02-28T10:22:33;5.80;66.10
18047;DHT22;9148;51.454;13.862;2023-02-28T10:25:04;6.00;64.90
18047;DHT22;9148;51.454;13.862;2023-02-28T10:27:40;5.90;64.80
18047;DHT22;9148;51.454;13.862;2023-02-28T10:30:09;6.80;65.50
18047;DHT22;9148;51.454;13.862;2023-02-28T10:32:36;6.40;63.50
18047;DHT22;9148;51.454;13.862;2023-02-28T10:35:17;6.80;61.60
18047;DHT22;9148;51.454;13.862;2023-02-28T10:37:56;6.40;60.40
18047;DHT22;9148;51.454;13.862;2023-02-28T10:43:14;6.50;60.80
18047;DHT22;9148;51.454;13.862;2023-02-28T10:45:56;6.80;63.40
18047;DHT22;9148;51.454;13.862;2023-02-28T10:48:45;7.30;64.20
18047;DHT22;9148;51.454;13.862;2023-02-28T10:51:18;7.80;60.50
18047;DHT22;9148;51.454;13.862;2023-02-28T10:53:54;8.20;57.40
18047;DHT22;9148;51.454;13.862;2023-02-28T10:56:22;8.30;57.40
18047;DHT22;9148;51.454;13.862;2023-02-28T10:58:58;8.40;56.10
18047;DHT22;9148;51.454;13.862;2023-02-28T11:01:44;8.30;54.80
18047;DHT22;9148;51.454;13.862;2023-02-28T11:04:33;8.20;55.10
18047;DHT22;9148;51.454;13.862;2023-02-28T11:07:20;8.00;54.50
18047;DHT22;9148;51.454;13.862;2023-02-28T11:09:50;7.70;55.10
18047;DHT22;9148;51.454;13.862;2023-02-28T11:12:36;7.60;56.50
18047;DHT22;9148;51.454;13.862;2023-02-28T11:15:21;7.90;57.30
18047;DHT22;9148;51.454;13.862;2023-02-28T11:17:59;8.40;56.60
18047;DHT22;9148;51.454;13.862;2023-02-28T11:20:29;8.60;54.80
18047;DHT22;9148;51.454;13.862;2023-02-28T11:22:58;8.50;52.60
18047;DHT22;9148;51.454;13.862;2023-02-28T11:25:34;8.40;53.10
18047;DHT22;9148;51.454;13.862;2023-02-28T11:28:04;8.20;52.80
18047;DHT22;9148;51.454;13.862;2023-02-28T11:30:40;8.20;53.20
18047;DHT22;9148;51.454;13.862;2023-02-28T11:33:28;8.10;52.30
18047;DHT22;9148;51.454;13.862;2023-02-28T11:36:03;8.30;53.60
18047;DHT22;9148;51.454;13.862;2023-02-28T11:38:35;8.40;52.70
18047;DHT22;9148;51.454;13.862;2023-02-28T11:41:11;8.40;52.50
18047;DHT22;9148;51.454;13.862;2023-02-28T11:44:00;8.00;52.60
18047;DHT22;9148;51.454;13.862;2023-02-28T11:52:43;8.20;53.70
18047;DHT22;9148;51.454;13.862;2023-02-28T11:55:26;8.40;54.30
18047;DHT22;9148;51.454;13.862;2023-02-28T11:58:26;8.90;55.50
18047;DHT22;9148;51.454;13.862;2023-02-28T12:04:25;10.20;56.30
18047;DHT22;9148;51.454;13.862;2023-02-28T12:10:21;10.90;50.90
18047;DHT22;9148;51.454;13.862;2023-02-28T12:24:24;10.30;50.00
18047;DHT22;9148;51.454;13.862;2023-02-28T12:27:14;10.40;51.20
18047;DHT22;9148;51.454;13.862;2023-02-28T12:30:05;10.80;52.00
18047;DHT22;9148;51.454;13.862;2023-02-28T12:32:43;11.10;51.00
18047;DHT22;9148;51.454;13.862;2023-02-28T12:35:26;11.20;49.90
18047;DHT22;9148;51.454;13.862;2023-02-28T12:38:04;11.20;50.20
18047;DHT22;9148;51.454;13.862;2023-02-28T12:40:52;11.40;49.30
18047;DHT22;9148;51.454;13.862;2023-02-28T12:43:22;11.60;50.00
18047;DHT22;9148;51.454;13.862;2023-02-28T12:45:58;11.80;49.80
18047;DHT22;9148;51.454;13.862;2023-02-28T12:48:36;12.00;48.60
18047;DHT22;9148;51.454;13.862;2023-02-28T12:51:06;12.00;49.50
18047;DHT22;9148;51.454;13.862;2023-02-28T12:53:35;12.20;49.50
18047;DHT22;9148;51.454;13.862;2023-02-28T12:56:29;12.10;49.10
18047;DHT22;9148;51.454;13.862;2023-02-28T13:02:44;12.20;46.40
18047;DHT22;9148;51.454;13.862;2023-02-28T13:14:16;11.70;46.80
18047;DHT22;9148;51.454;13.862;2023-02-28T13:19:26;11.70;48.10
18047;DHT22;9148;51.454;13.862;2023-02-28T13:21:55;11.90;48.60
18047;DHT22;9148;51.454;13.862;2023-02-28T13:24:44;12.00;47.70
18047;DHT22;9148;51.454;13.862;2023-02-28T13:27:33;12.00;48.00
18047;DHT22;9148;51.454;13.862;2023-02-28T13:38:49;11.40;44.60
18047;DHT22;9148;51.454;13.862;2023-02-28T13:44:20;10.70;45.30
18047;DHT22;9148;51.454;13.862;2023-02-28T13:49:26;10.40;47.30
18047;DHT22;9148;51.454;13.862;2023-02-28T13:55:14;10.80;47.70
18047;DHT22;9148;51.454;13.862;2023-02-28T14:09:23;11.20;47.30
18047;DHT22;9148;51.454;13.862;2023-02-28T14:11:51;11.20;47.30
18047;DHT22;9148;51.454;13.862;2023-02-28T14:17:13;11.10;47.00
18047;DHT22;9148;51.454;13.862;2023-02-28T14:19:44;10.90;47.00
18047;DHT22;9148;51.454;13.862;2023-02-28T14:22:38;10.90;47.50
18047;DHT22;9148;51.454;13.862;2023-02-28T14:25:34;10.80;47.90
18047;DHT22;9148;51.454;13.862;2023-02-28T14:31:15;10.50;47.60
18047;DHT22;9148;51.454;13.862;2023-02-28T14:36:44;9.70;49.40
18047;DHT22;9148;51.454;13.862;2023-02-28T14:39:16;9.40;49.10
18047;DHT22;9148;51.454;13.862;2023-02-28T14:41:45;9.00;49.90
18047;DHT22;9148;51.454;13.862;2023-02-28T14:46:57;8.60;51.80
18047;DHT22;9148;51.454;13.862;2023-02-28T14:49:32;8.50;52.70
18047;DHT22;9148;51.454;13.862;2023-02-28T14:52:23;8.50;52.80
18047;DHT22;9148;51.454;13.862;2023-02-28T14:54:58;8.60;53.20
18047;DHT22;9148;51.454;13.862;2023-02-28T14:57:34;9.00;52.30
18047;DHT22;9148;51.454;13.862;2023-02-28T15:02:56;8.80;52.50
18047;DHT22;9148;51.454;13.862;2023-02-28T15:05:32;8.80;52.10
18047;DHT22;9148;51.454;13.862;2023-02-28T15:10:58;8.80;52.10
18047;DHT22;9148;51.454;13.862;2023-02-28T15:13:59;8.70;51.50
18047;DHT22;9148;51.454;13.862;2023-02-28T15:16:40;8.60;51.40
18047;DHT22;9148;51.454;13.862;2023-02-28T15:19:26;8.50;52.00
18047;DHT22;9148;51.454;13.862;2023-02-28T15:22:01;8.30;51.60
18047;DHT22;9148;51.454;13.862;2023-02-28T15:24:39;8.20;52.00
18047;DHT22;9148;51.454;13.862;2023-02-28T15:27:13;8.10;51.50
18047;DHT22;9148;51.454;13.862;2023-02-28T15:29:50;8.00;52.50
18047;DHT22;9148;51.454;13.862;2023-02-28T15:32:36;8.00;52.40
18047;DHT22;9148;51.454;13.862;2023-02-28T15:35:27;7.80;52.50
18047;DHT22;9148;51.454;13.862;2023-02-28T15:40:45;8.10;52.80
18047;DHT22;9148;51.454;13.862;2023-02-28T15:43:30;7.40;53.00
18047;DHT22;9148;51.454;13.862;2023-02-28T15:45:58;7.30;53.70
18047;DHT22;9148;51.454;13.862;2023-02-28T15:48:30;7.30;54.20
18047;DHT22;9148;51.454;13.862;2023-02-28T15:53:54;7.10;54.40
18047;DHT22;9148;51.454;13.862;2023-02-28T15:56:28;7.00;54.50
18047;DHT22;9148;51.454;13.862;2023-02-28T15:59:06;7.20;55.10
18047;DHT22;9148;51.454;13.862;2023-02-28T16:01:37;6.90;55.90
18047;DHT22;9148;51.454;13.862;2023-02-28T16:04:11;6.20;56.10
18047;DHT22;9148;51.454;13.862;2023-02-28T16:06:41;6.00;56.50
18047;DHT22;9148;51.454;13.862;2023-02-28T16:09:14;5.80;57.10
18047;DHT22;9148;51.454;13.862;2023-02-28T16:11:47;5.60;57.30
18047;DHT22;9148;51.454;13.862;2023-02-28T16:14:20;5.50;57.80
18047;DHT22;9148;51.454;13.862;2023-02-28T16:16:54;5.30;58.20
18047;DHT22;9148;51.454;13.862;2023-02-28T16:19:21;5.20;58.50
18047;DHT22;9148;51.454;13.862;2023-02-28T16:21:47;5.10;59.00
18047;DHT22;9148;51.454;13.862;2023-02-28T16:24:13;5.00;59.10
18047;DHT22;9148;51.454;13.862;2023-02-28T16:26:41;5.40;59.60
18047;DHT22;9148;51.454;13.862;2023-02-28T16:29:15;4.80;59.60
18047;DHT22;9148;51.454;13.862;2023-02-28T16:31:48;4.70;59.80
18047;DHT22;9148;51.454;13.862;2023-02-28T16:34:14;5.20;60.60
18047;DHT22;9148;51.454;13.862;2023-02-28T16:36:39;4.50;60.60
18047;DHT22;9148;51.454;13.862;2023-02-28T16:39:06;4.50;61.00
18047;DHT22;9148;51.454;13.862;2023-02-28T16:41:34;4.30;61.20
18047;DHT22;9148;51.454;13.862;2023-02-28T16:44:00;4.20;61.60
18047;DHT22;9148;51.454;13.862;2023-02-28T16:46:34;4.10;62.10
18047;DHT22;9148;51.454;13.862;2023-02-28T16:49:00;4.00;62.60
18047;DHT22;9148;51.454;13.862;2023-02-28T16:51:26;4.00;62.70
18047;DHT22;9148;51.454;13.862;2023-02-28T16:53:51;3.90;62.90
18047;DHT22;9148;51.454;13.862;2023-02-28T16:56:23;3.70;63.60
18047;DHT22;9148;51.454;13.862;2023-02-28T16:58:50;3.70;65.20
18047;DHT22;9148;51.454;13.862;2023-02-28T17:01:17;4.60;65.60
18047;DHT22;9148;51.454;13.862;2023-02-28T17:03:47;3.70;65.60
18047;DHT22;9148;51.454;13.862;2023-02-28T17:06:24;3.40;66.00
18047;DHT22;9148;51.454;13.862;2023-02-28T17:08:53;3.40;66.70
18047;DHT22;9148;51.454;13.862;2023-02-28T17:11:20;3.30;67.20
18047;DHT22;9148;51.454;13.862;2023-02-28T17:13:46;3.30;67.80
18047;DHT22;9148;51.454;13.862;2023-02-28T17:16:30;3.30;68.10
18047;DHT22;9148;51.454;13.862;2023-02-28T17:19:00;3.20;68.50
18047;DHT22;9148;51.454;13.862;2023-02-28T17:21:27;3.00;68.90
18047;DHT22;9148;51.454;13.862;2023-02-28T17:23:53;2.90;69.40
18047;DHT22;9148;51.454;13.862;2023-02-28T17:26:20;2.70;69.70
18047;DHT22;9148;51.454;13.862;2023-02-28T17:28:48;2.60;70.20
18047;DHT22;9148;51.454;13.862;2023-02-28T17:31:14;2.40;70.50
18047;DHT22;9148;51.454;13.862;2023-02-28T17:33:40;2.20;71.00
18047;DHT22;9148;51.454;13.862;2023-02-28T17:36:08;2.00;71.60
18047;DHT22;9148;51.454;13.862;2023-02-28T17:38:38;1.90;72.20
18047;DHT22;9148;51.454;13.862;2023-02-28T17:41:03;1.80;73.00
18047;DHT22;9148;51.454;13.862;2023-02-28T17:43:29;1.70;73.70
18047;DHT22;9148;51.454;13.862;2023-02-28T17:45:55;1.50;74.30
18047;DHT22;9148;51.454;13.862;2023-02-28T17:48:21;1.40;74.90
18047;DHT22;9148;51.454;13.862;2023-02-28T17:50:47;1.30;75.60
18047;DHT22;9148;51.454;13.862;2023-02-28T17:53:13;1.10;76.10
18047;DHT22;9148;51.454;13.862;2023-02-28T17:55:38;1.10;77.00
18047;DHT22;9148;51.454;13.862;2023-02-28T17:58:05;0.90;77.60
18047;DHT22;9148;51.454;13.862;2023-02-28T18:00:31;0.80;78.70